Time;durP1;ratioP1;P1;durP2;ratioP2;P2;SDS_P1;SDS_P2;PMS_P1;PMS_P2;Temp;Humidity;BMP_temperature;BMP_pressure;BME280_temperature;BME280_humidity;BME280_pressure;Samples;Min_cycle;Max_cycle;Signal;HPM_P1;HPM_P2
2023/05/07 00:01:06;;;;;;;4.38;2.50;;;;;;;18.78;49.80;99037.06;4991771;28;20058;-78
2023/05/07 00:03:32;;;;;;;3.92;2.40;;;;;;;18.76;49.73;99037.22;4976595;28;20050;-77
2023/05/07 00:05:58;;;;;;;7.35;2.30;;;;;;;18.71;49.77;99031.63;5012423;28;20038;-77
2023/05/07 00:08:23;;;;;;;4.03;2.45;;;;;;;18.72;49.85;99030.63;4978185;28;20104;-78
2023/05/07 00:10:48;;;;;;;5.40;2.60;;;;;;;18.67;49.84;99024.97;4995022;28;20034;-78
2023/05/07 00:13:14;;;;;;;4.75;2.10;;;;;;;18.62;49.90;99017.53;4994684;28;20042;-77
2023/05/07 00:15:39;;;;;;;4.95;2.30;;;;;;;18.62;49.94;99020.19;5012312;28;20477;-77
2023/05/07 00:18:05;;;;;;;3.85;2.40;;;;;;;18.61;49.91;99022.97;5012354;28;20390;-77
2023/05/07 00:20:30;;;;;;;5.03;2.28;;;;;;;18.58;49.94;99023.31;4994774;28;20069;-77
2023/05/07 00:22:56;;;;;;;4.40;2.38;;;;;;;18.52;49.99;99014.22;4994621;28;20051;-77
2023/05/07 00:25:21;;;;;;;4.03;2.08;;;;;;;18.54;50.05;99019.34;4995068;28;20478;-77
2023/05/07 00:27:47;;;;;;;3.55;2.17;;;;;;;18.50;49.99;99021.50;4994722;28;20045;-77
2023/05/07 00:30:13;;;;;;;5.88;2.45;;;;;;;18.49;50.00;99017.19;5012794;28;20511;-77
2023/05/07 00:32:38;;;;;;;3.40;2.47;;;;;;;18.46;50.13;99017.50;5016236;28;20417;-77
2023/05/07 00:35:05;;;;;;;3.20;2.38;;;;;;;18.41;50.05;99009.25;4998590;28;20097;-77
2023/05/07 00:37:30;;;;;;;4.90;2.30;;;;;;;18.40;50.24;99018.97;4982419;28;20107;-77
2023/05/07 00:39:56;;;;;;;5.05;2.28;;;;;;;18.34;49.97;99011.66;4998874;28;20433;-77
2023/05/07 00:42:22;;;;;;;4.82;2.30;;;;;;;18.34;49.95;99016.13;4998663;28;20064;-77
2023/05/07 00:44:47;;;;;;;6.60;2.33;;;;;;;18.29;50.18;99019.25;4966077;28;20124;-77
2023/05/07 00:47:13;;;;;;;3.35;2.20;;;;;;;18.28;50.40;99017.63;4998370;28;20092;-77
2023/05/07 00:49:41;;;;;;;4.00;2.17;;;;;;;18.26;50.20;99017.78;4998076;28;20037;-77
2023/05/07 00:52:07;;;;;;;4.72;2.15;;;;;;;18.23;50.13;99018.09;4981424;28;20050;-77
2023/05/07 00:54:33;;;;;;;5.20;2.03;;;;;;;18.20;50.34;99014.94;4982406;28;20383;-77
2023/05/07 00:56:59;;;;;;;4.75;2.13;;;;;;;18.16;50.17;99019.72;4998763;28;20042;-77
2023/05/07 00:59:24;;;;;;;3.90;2.05;;;;;;;18.11;50.35;99016.72;4998636;28;20042;-78
2023/05/07 01:01:50;;;;;;;2.75;1.90;;;;;;;18.11;50.35;99014.06;4998247;28;20066;-77
2023/05/07 01:04:15;;;;;;;3.53;2.03;;;;;;;18.08;50.27;99017.03;4997830;28;20058;-77
2023/05/07 01:06:41;;;;;;;4.50;2.20;;;;;;;18.06;50.30;99017.19;5030564;28;20041;-76
2023/05/07 01:09:07;;;;;;;3.05;1.90;;;;;;;18.03;50.46;99011.41;4997777;28;20116;-77
2023/05/07 01:11:32;;;;;;;5.93;2.10;;;;;;;18.00;50.37;99012.53;5015644;28;20037;-77
2023/05/07 01:13:58;;;;;;;2.92;1.90;;;;;;;17.99;50.29;99016.16;4982125;28;20104;-77
2023/05/07 01:16:24;;;;;;;5.32;2.15;;;;;;;17.95;50.26;99012.19;4981829;28;20125;-77
2023/05/07 01:18:50;;;;;;;3.05;2.00;;;;;;;17.87;50.42;99007.66;4981881;28;20113;-77
2023/05/07 01:21:15;;;;;;;6.22;2.00;;;;;;;17.88;50.72;99011.16;4981462;28;20117;-77
2023/05/07 01:23:41;;;;;;;4.07;1.98;;;;;;;17.87;50.50;99017.41;4981728;28;20462;-77
2023/05/07 01:26:06;;;;;;;3.17;2.08;;;;;;;17.83;50.42;99013.41;4981456;28;20034;-77
2023/05/07 01:28:32;;;;;;;4.35;1.98;;;;;;;17.85;50.41;99020.22;4981281;28;20116;-77
2023/05/07 01:31:01;;;;;;;4.05;2.08;;;;;;;17.81;50.30;99016.22;5015184;28;20501;-77
2023/05/07 01:33:27;;;;;;;3.70;1.90;;;;;;;17.82;50.43;99009.97;4997884;28;20065;-77
2023/05/07 01:35:53;;;;;;;3.08;2.00;;;;;;;17.81;50.37;99020.69;4997393;28;20535;-77
2023/05/07 01:38:18;;;;;;;4.00;2.03;;;;;;;17.78;50.41;99013.06;5015275;28;20121;-77
2023/05/07 01:40:44;;;;;;;6.18;2.47;;;;;;;17.77;50.29;99012.22;4981218;28;20184;-77
2023/05/07 01:43:09;;;;;;;4.03;2.40;;;;;;;17.73;50.32;99005.59;4980887;28;20045;-77
2023/05/07 01:45:35;;;;;;;2.95;1.95;;;;;;;17.74;50.12;99007.25;4981241;28;20069;-77
2023/05/07 01:48:01;;;;;;;4.75;2.20;;;;;;;17.73;50.43;98998.50;4981482;28;20046;-78
2023/05/07 01:50:27;;;;;;;3.97;2.15;;;;;;;17.73;50.41;99002.97;4981302;28;20500;-77
2023/05/07 01:52:52;;;;;;;3.33;2.10;;;;;;;17.76;50.32;98999.16;4981392;28;20220;-77
2023/05/07 01:55:18;;;;;;;3.10;1.80;;;;;;;17.71;50.36;98997.84;5014757;28;20030;-77
2023/05/07 01:57:43;;;;;;;3.28;1.90;;;;;;;17.75;50.13;99002.81;4997312;28;20041;-77
2023/05/07 02:00:09;;;;;;;5.65;1.90;;;;;;;17.75;50.34;98990.44;5014786;28;20482;-77
2023/05/07 02:02:35;;;;;;;2.70;1.77;;;;;;;17.76;50.28;98988.59;5014712;28;20038;-78
2023/05/07 02:05:01;;;;;;;3.22;1.95;;;;;;;17.76;50.18;98991.25;4996838;28;20510;-77
2023/05/07 02:07:27;;;;;;;3.45;2.10;;;;;;;17.75;50.28;98998.34;4997153;28;20481;-77
2023/05/07 02:09:53;;;;;;;3.67;2.08;;;;;;;17.70;50.21;98987.44;5014569;28;20422;-78
2023/05/07 02:12:19;;;;;;;3.58;2.10;;;;;;;17.73;50.32;98995.06;4980242;28;20038;-77
2023/05/07 02:14:44;;;;;;;3.35;2.00;;;;;;;17.69;50.39;98985.78;5014453;28;20508;-77
2023/05/07 02:17:10;;;;;;;3.15;1.90;;;;;;;17.69;50.33;98988.41;4996887;28;20541;-78
2023/05/07 02:19:35;;;;;;;3.83;2.05;;;;;;;17.71;50.54;98984.66;4964176;28;20050;-78
2023/05/07 02:22:01;;;;;;;3.90;1.88;;;;;;;17.72;50.43;98985.47;4964852;28;20109;-78
2023/05/07 02:24:26;;;;;;;3.58;2.10;;;;;;;17.70;50.50;98988.25;5014264;28;20030;-77
2023/05/07 02:26:52;;;;;;;5.13;2.08;;;;;;;17.70;50.54;98987.44;5014530;28;20413;-77
2023/05/07 02:29:17;;;;;;;3.33;1.95;;;;;;;17.70;50.60;98987.44;4996722;28;20042;-77
2023/05/07 02:31:43;;;;;;;3.67;2.00;;;;;;;17.70;50.57;98976.88;5014054;28;20038;-77
2023/05/07 02:34:08;;;;;;;4.20;2.40;;;;;;;17.69;50.52;98983.13;5013784;28;20045;-77
2023/05/07 02:36:33;;;;;;;3.67;2.10;;;;;;;17.68;50.89;98981.50;4997107;28;20034;-77
2023/05/07 02:38:59;;;;;;;3.72;2.03;;;;;;;17.64;50.63;98970.41;4980330;28;20042;-76
2023/05/07 02:41:24;;;;;;;3.50;2.13;;;;;;;17.67;50.74;98979.84;4996558;28;20056;-77
2023/05/07 02:43:50;;;;;;;4.65;2.10;;;;;;;17.68;50.75;98984.13;5013921;28;20120;-77
2023/05/07 02:46:15;;;;;;;4.93;2.10;;;;;;;17.68;50.63;98984.13;4980023;28;20045;-77
2023/05/07 02:48:41;;;;;;;4.38;1.98;;;;;;;17.67;50.68;98975.38;5014064;28;20042;-77
2023/05/07 02:51:06;;;;;;;5.43;2.05;;;;;;;17.65;50.82;98977.34;5013938;28;20047;-77
2023/05/07 02:53:32;;;;;;;3.30;1.92;;;;;;;17.63;50.57;98963.50;4979295;28;20054;-77
2023/05/07 02:55:59;;;;;;;3.92;2.28;;;;;;;17.65;50.91;98976.53;4996779;28;20037;-78
2023/05/07 02:58:24;;;;;;;2.95;2.00;;;;;;;17.64;50.65;98975.69;4996787;28;20470;-77
2023/05/07 03:00:50;;;;;;;4.50;2.20;;;;;;;17.64;50.84;98975.69;4980025;28;20038;-77
2023/05/07 03:03:15;;;;;;;4.20;2.17;;;;;;;17.61;50.76;98972.53;5014594;28;20058;-77
2023/05/07 03:05:41;;;;;;;4.57;2.33;;;;;;;17.61;51.03;98967.25;4993336;28;20502;-77
2023/05/07 03:08:07;;;;;;;3.13;2.22;;;;;;;17.63;50.85;98968.78;4994186;28;20049;-77
2023/05/07 03:10:32;;;;;;;4.05;2.20;;;;;;;17.60;50.77;98966.44;4977019;28;20046;-77
2023/05/07 03:12:58;;;;;;;3.53;1.95;;;;;;;17.71;50.53;98976.72;4994032;28;20068;-77
2023/05/07 03:15:23;;;;;;;2.97;2.00;;;;;;;17.69;50.72;98978.69;4976505;28;20038;-78
2023/05/07 03:17:49;;;;;;;3.67;2.22;;;;;;;17.71;50.47;98975.88;4993913;28;20070;-77
2023/05/07 03:20:14;;;;;;;5.07;2.25;;;;;;;17.75;50.38;98982.50;4996284;28;20054;-77
2023/05/07 03:22:40;;;;;;;3.55;2.15;;;;;;;17.77;50.24;98982.34;4992367;28;20090;-77
2023/05/07 03:25:06;;;;;;;4.30;2.13;;;;;;;17.80;50.15;98976.75;4992694;28;20567;-77
2023/05/07 03:27:31;;;;;;;3.17;2.10;;;;;;;17.84;50.35;98978.13;4960208;28;20097;-77
2023/05/07 03:29:57;;;;;;;5.95;2.40;;;;;;;17.90;50.01;98982.78;4993659;28;20034;-77
2023/05/07 03:32:22;;;;;;;4.93;2.20;;;;;;;18.33;49.36;98977.47;4992474;28;20073;-78
2023/05/07 03:34:48;;;;;;;6.05;2.22;;;;;;;19.07;47.34;98967.03;4959942;28;20045;-77
2023/05/07 03:37:13;;;;;;;4.07;2.15;;;;;;;19.66;45.85;98977.38;4993115;28;20433;-78
2023/05/07 03:39:39;;;;;;;4.80;2.38;;;;;;;20.33;44.33;98976.13;4991902;28;20034;-78
2023/05/07 03:42:04;;;;;;;6.80;2.20;;;;;;;20.98;43.05;98969.59;4991891;28;20042;-77
2023/05/07 03:44:30;;;;;;;4.25;2.35;;;;;;;21.63;41.72;98967.34;4993228;28;20130;-78
2023/05/07 03:46:55;;;;;;;3.13;1.73;;;;;;;22.31;40.01;98984.00;4993226;28;20038;-78
2023/05/07 03:49:21;;;;;;;3.40;2.05;;;;;;;22.98;38.80;98973.19;4975675;28;20057;-77
2023/05/07 03:51:46;;;;;;;5.55;2.38;;;;;;;23.70;37.60;98968.63;4992987;28;20109;-78
2023/05/07 03:54:12;;;;;;;3.70;2.20;;;;;;;24.45;36.04;98976.75;4992827;28;20420;-78
2023/05/07 03:56:37;;;;;;;5.30;1.73;;;;;;;25.18;34.86;98982.22;4993030;28;20092;-78
2023/05/07 03:59:03;;;;;;;7.38;1.80;;;;;;;25.86;33.25;98975.75;4991515;28;20058;-78
2023/05/07 04:01:28;;;;;;;4.68;1.98;;;;;;;26.51;32.28;98977.56;4992640;28;20096;-78
2023/05/07 04:03:54;;;;;;;4.57;2.05;;;;;;;27.17;31.38;98978.97;4997098;28;20516;-78
2023/05/07 04:06:19;;;;;;;4.63;1.70;;;;;;;27.89;30.26;98969.63;4994705;28;20632;-78
2023/05/07 04:08:45;;;;;;;5.57;1.77;;;;;;;28.57;29.32;98979.28;5012845;28;20046;-78
2023/05/07 04:11:10;;;;;;;4.97;2.00;;;;;;;29.21;28.34;98976.91;5012216;28;20034;-78
2023/05/07 04:13:36;;;;;;;6.43;2.10;;;;;;;29.83;27.42;98977.50;4977831;28;20053;-78
2023/05/07 04:16:02;;;;;;;4.43;1.67;;;;;;;30.47;26.62;98972.88;5012163;28;20030;-78
2023/05/07 04:18:28;;;;;;;5.60;2.10;;;;;;;31.13;25.84;98980.44;4993964;28;20038;-78
2023/05/07 04:20:54;;;;;;;5.97;1.80;;;;;;;31.76;24.73;98982.19;5012439;28;20069;-77
2023/05/07 04:23:19;;;;;;;7.72;1.70;;;;;;;32.40;24.01;98987.00;5012143;28;20438;-78
2023/05/07 04:25:45;;;;;;;6.18;1.50;;;;;;;32.98;23.53;98982.69;5011813;28;20409;-77
2023/05/07 04:28:11;;;;;;;5.28;1.90;;;;;;;33.60;22.68;98982.31;4978328;28;20101;-77
2023/05/07 04:30:37;;;;;;;5.35;1.70;;;;;;;34.18;22.12;98990.47;4978419;28;20034;-78
2023/05/07 04:33:02;;;;;;;6.03;1.55;;;;;;;34.72;21.60;98998.16;4995131;28;20104;-78
2023/05/07 04:35:28;;;;;;;4.18;1.73;;;;;;;35.28;20.90;98993.88;4994695;28;20037;-78
2023/05/07 04:37:53;;;;;;;4.22;1.60;;;;;;;35.78;20.39;99002.19;5012159;28;20045;-78
2023/05/07 04:40:19;;;;;;;5.10;1.60;;;;;;;36.31;20.04;98997.09;4994446;28;20049;-78
2023/05/07 04:42:44;;;;;;;2.95;1.55;;;;;;;36.84;19.20;98999.19;5012167;28;20116;-78
2023/05/07 04:45:10;;;;;;;3.50;1.70;;;;;;;37.31;19.02;98999.66;5011749;28;20038;-78
2023/05/07 04:47:36;;;;;;;3.72;1.63;;;;;;;37.72;18.30;98995.69;4994350;28;20049;-78
2023/05/07 04:50:02;;;;;;;2.70;1.50;;;;;;;38.22;18.00;99007.06;4994533;28;20089;-78
2023/05/07 04:52:27;;;;;;;3.10;1.40;;;;;;;38.63;17.59;99006.50;5012123;28;20042;-78
2023/05/07 04:54:53;;;;;;;8.60;2.08;;;;;;;39.00;17.08;99010.28;5011722;28;20042;-78
2023/05/07 04:57:18;;;;;;;6.80;1.70;;;;;;;39.36;16.69;99017.88;5012070;28;20109;-78
2023/05/07 04:59:44;;;;;;;3.63;1.27;;;;;;;39.77;16.25;99016.28;5011840;28;20038;-78
2023/05/07 05:02:12;;;;;;;2.65;1.70;;;;;;;40.17;16.22;99022.06;5011978;28;20532;-77
2023/05/07 05:04:38;;;;;;;4.72;1.40;;;;;;;40.45;15.95;99022.00;4977942;28;20408;-79
2023/05/07 05:07:03;;;;;;;3.08;1.42;;;;;;;40.80;15.49;99022.28;4994482;28;20030;-77
2023/05/07 05:09:29;;;;;;;4.38;1.55;;;;;;;41.08;15.28;99020.25;4978862;28;20034;-78
2023/05/07 05:11:55;;;;;;;5.50;1.42;;;;;;;41.43;15.08;99027.88;4994520;28;20025;-78
2023/05/07 05:14:20;;;;;;;6.47;1.30;;;;;;;41.72;15.11;99027.34;4978393;28;20038;-77
2023/05/07 05:16:46;;;;;;;3.28;1.42;;;;;;;41.97;14.54;99035.97;4996097;28;20042;-78
2023/05/07 05:19:11;;;;;;;2.83;1.30;;;;;;;42.19;14.58;99029.59;5015727;28;20393;-77
2023/05/07 05:21:37;;;;;;;5.45;1.42;;;;;;;42.41;14.48;99032.19;4997611;28;20042;-79
2023/05/07 05:24:02;;;;;;;5.50;1.60;;;;;;;42.56;14.32;99030.94;5015724;28;20069;-79
2023/05/07 05:26:28;;;;;;;3.33;1.33;;;;;;;42.49;14.44;99025.09;4981466;28;20046;-78
2023/05/07 05:28:53;;;;;;;4.30;1.45;;;;;;;42.35;14.42;99035.41;5015349;28;20481;-78
2023/05/07 05:31:19;;;;;;;4.72;1.40;;;;;;;42.37;14.59;99047.69;5015554;28;20096;-78
2023/05/07 05:33:44;;;;;;;3.38;1.40;;;;;;;42.44;14.22;99044.47;5015013;28;20061;-78
2023/05/07 05:36:10;;;;;;;5.55;1.40;;;;;;;42.56;14.38;99050.16;4996835;28;20038;-78
2023/05/07 05:38:36;;;;;;;3.33;1.48;;;;;;;42.68;14.08;99044.00;5015223;28;20042;-78
2023/05/07 05:41:01;;;;;;;3.43;1.60;;;;;;;42.64;14.45;99043.06;5015916;28;20041;-78
2023/05/07 05:43:27;;;;;;;2.27;1.27;;;;;;;42.58;14.31;99047.09;4964767;28;20041;-78
2023/05/07 05:45:52;;;;;;;5.72;1.60;;;;;;;42.62;14.21;99048.88;5014726;28;20061;-79
2023/05/07 05:48:18;;;;;;;2.45;1.30;;;;;;;42.69;14.18;99058.56;4981569;28;20096;-78
2023/05/07 05:50:43;;;;;;;5.47;1.52;;;;;;;42.76;14.13;99061.59;4997504;28;20050;-79
2023/05/07 05:53:09;;;;;;;1.93;1.03;;;;;;;42.80;14.16;99068.06;4997213;28;20038;-77
2023/05/07 05:55:34;;;;;;;4.07;1.43;;;;;;;42.76;13.91;99056.09;4981046;28;20088;-78
2023/05/07 05:58:00;;;;;;;2.43;1.30;;;;;;;42.78;13.64;99068.38;4997197;28;20069;-78
2023/05/07 06:00:26;;;;;;;3.93;1.40;;;;;;;42.76;13.80;99070.63;4997877;28;20042;-78
2023/05/07 06:02:52;;;;;;;5.07;1.50;;;;;;;42.46;14.01;99073.19;5014843;28;20048;-76
2023/05/07 06:05:17;;;;;;;3.73;1.20;;;;;;;42.41;14.25;99075.28;5014753;28;20089;-78
2023/05/07 06:07:43;;;;;;;2.53;1.50;;;;;;;42.37;14.09;99077.03;5014738;28;20042;-77
2023/05/07 06:10:08;;;;;;;2.45;1.30;;;;;;;42.26;13.78;99082.06;4997018;28;20500;-76
2023/05/07 06:12:34;;;;;;;7.22;1.42;;;;;;;42.10;14.06;99092.63;4996871;28;20044;-78
2023/05/07 06:14:59;;;;;;;3.47;1.40;;;;;;;41.90;14.00;99083.03;5014582;28;20026;-77
2023/05/07 06:17:25;;;;;;;2.70;1.30;;;;;;;41.75;13.87;99090.56;4980833;28;20030;-79
2023/05/07 06:19:51;;;;;;;4.68;1.65;;;;;;;41.59;13.97;99092.91;5014268;28;20097;-78
2023/05/07 06:22:16;;;;;;;2.85;1.10;;;;;;;41.46;14.36;99090.25;5014493;28;20065;-77
2023/05/07 06:24:42;;;;;;;4.93;1.25;;;;;;;41.33;14.16;99083.72;5014380;28;20402;-78
2023/05/07 06:27:07;;;;;;;4.93;1.20;;;;;;;41.32;14.45;99090.31;5013915;28;20136;-79
2023/05/07 06:29:33;;;;;;;7.75;1.20;;;;;;;41.28;14.32;99086.56;4996286;28;20045;-78
2023/05/07 06:32:08;;;;;;;2.15;1.10;;;;;;;41.17;13.96;99094.22;4997175;28;20038;-77
2023/05/07 06:34:33;;;;;;;4.28;1.20;;;;;;;41.07;14.23;99095.31;5014135;28;20054;-77
2023/05/07 06:36:59;;;;;;;4.53;1.30;;;;;;;40.94;14.11;99096.16;5014404;28;20045;-78
2023/05/07 06:39:24;;;;;;;3.30;1.20;;;;;;;40.73;14.26;99093.88;4980001;28;20053;-78
2023/05/07 06:41:50;;;;;;;6.75;1.30;;;;;;;40.60;14.41;99089.25;4980397;28;20497;-78
2023/05/07 06:44:15;;;;;;;2.90;1.00;;;;;;;40.52;14.27;99090.78;4996518;28;20073;-79
2023/05/07 06:46:41;;;;;;;4.03;0.80;;;;;;;40.35;16.69;99088.66;4996988;28;20049;-83
2023/05/07 06:49:06;;;;;;;1.13;0.80;;;;;;;39.65;17.75;99095.19;4964178;28;20045;-77
2023/05/07 06:51:32;;;;;;;5.22;1.02;;;;;;;39.17;17.97;99090.81;4995844;28;20453;-80
2023/05/07 06:53:58;;;;;;;3.10;0.90;;;;;;;39.05;18.36;99085.81;5030969;28;20042;-88
2023/05/07 06:56:35;;;;;;;7.57;1.03;;;;;;;38.73;18.27;99088.19;4999805;28;20076;-89
2023/05/07 06:59:01;;;;;;;25.95;1.30;;;;;;;38.39;18.76;99093.00;4997656;28;20040;-75
2023/05/07 07:01:27;;;;;;;13.00;1.30;;;;;;;38.04;19.30;99087.66;4980275;28;20038;-78
2023/05/07 07:03:54;;;;;;;5.47;1.00;;;;;;;37.80;19.53;99085.75;4980469;28;20049;-79
2023/05/07 07:06:19;;;;;;;14.07;1.48;;;;;;;37.57;19.87;99081.06;4979745;28;20038;-78
2023/05/07 07:08:45;;;;;;;5.35;1.13;;;;;;;37.47;20.23;99079.25;5013719;28;20073;-78
2023/05/07 07:11:10;;;;;;;17.02;1.25;;;;;;;37.29;20.31;99087.03;4979984;28;20421;-77
2023/05/07 07:13:36;;;;;;;9.13;1.15;;;;;;;37.19;20.76;99084.34;4964016;28;20038;-82
2023/05/07 07:16:02;;;;;;;4.03;1.00;;;;;;;37.41;20.29;99096.72;4997102;28;20041;-78
2023/05/07 07:18:27;;;;;;;6.22;1.23;;;;;;;37.20;20.37;99093.34;4995226;28;20034;-77
2023/05/07 07:20:53;;;;;;;7.60;1.35;;;;;;;36.92;21.05;99087.56;4979815;28;20045;-77
2023/05/07 07:23:18;;;;;;;4.05;1.23;;;;;;;36.71;21.04;99092.28;4979594;28;20129;-74
2023/05/07 07:25:44;;;;;;;2.25;0.80;;;;;;;36.55;21.20;99103.25;4995600;28;20021;-77
2023/05/07 07:28:10;;;;;;;2.38;0.90;;;;;;;36.53;20.93;99100.00;4980145;28;20098;-83
2023/05/07 07:30:36;;;;;;;5.23;0.97;;;;;;;36.60;21.20;99090.72;4996855;28;20041;-79
2023/05/07 07:33:05;;;;;;;5.65;1.08;;;;;;;36.37;21.60;99101.97;4963472;28;20046;-82
2023/05/07 07:35:33;;;;;;;8.32;1.10;;;;;;;36.46;20.01;99104.91;4981250;28;20089;-84
2023/05/07 07:37:59;;;;;;;4.28;1.30;;;;;;;36.68;19.34;99101.00;4981033;28;20048;-84
2023/05/07 07:40:24;;;;;;;3.28;1.00;;;;;;;36.85;18.11;99111.56;4963836;28;20033;-83
2023/05/07 07:42:50;;;;;;;2.65;1.02;;;;;;;36.91;18.36;99103.06;4980695;28;20488;-84
2023/05/07 07:45:16;;;;;;;3.35;0.88;;;;;;;37.00;18.03;99092.38;4995663;28;20044;-85
2023/05/07 07:47:42;;;;;;;4.65;1.05;;;;;;;37.08;17.82;99099.13;4995848;28;20042;-85
2023/05/07 07:50:07;;;;;;;3.20;0.90;;;;;;;37.18;17.67;99104.50;4963717;28;20398;-81
2023/05/07 07:52:33;;;;;;;2.30;1.10;;;;;;;37.27;17.54;99105.56;4996146;28;20034;-80
2023/05/07 07:54:59;;;;;;;5.22;1.10;;;;;;;37.32;17.70;99104.69;4964270;28;20041;-84
2023/05/07 07:57:25;;;;;;;4.13;1.10;;;;;;;37.36;17.48;99104.94;5013433;28;20038;-87
2023/05/07 07:59:51;;;;;;;1.23;0.80;;;;;;;37.33;17.13;99108.25;4965280;28;20085;-81
2023/05/07 08:02:17;;;;;;;3.70;0.90;;;;;;;37.23;17.34;99107.22;4962642;28;20046;-81
2023/05/07 08:04:45;;;;;;;8.65;1.13;;;;;;;37.20;17.25;99104.22;4979414;28;20502;-83
2023/05/07 08:07:10;;;;;;;2.47;0.90;;;;;;;37.15;17.12;99107.81;4995687;28;20034;-82
2023/05/07 08:09:39;;;;;;;3.58;0.93;;;;;;;37.07;17.26;99102.97;4962713;28;20135;-81
2023/05/07 08:12:05;;;;;;;3.15;0.98;;;;;;;37.04;17.15;99093.47;4979379;28;20040;-83
2023/05/07 08:14:31;;;;;;;5.00;0.80;;;;;;;36.98;16.62;99093.78;4979293;28;20034;-83
2023/05/07 08:16:56;;;;;;;2.17;0.80;;;;;;;36.84;17.28;99099.84;4962767;28;20188;-82
2023/05/07 08:19:22;;;;;;;3.47;0.88;;;;;;;36.90;16.95;99100.63;4995233;28;20034;-81
2023/05/07 08:21:48;;;;;;;2.60;0.80;;;;;;;36.86;17.12;99105.84;4978739;28;20508;-81
2023/05/07 08:24:16;;;;;;;2.15;0.90;;;;;;;36.82;16.94;99099.31;4994848;28;20060;-82
2023/05/07 08:26:41;;;;;;;2.30;0.90;;;;;;;36.71;17.42;99101.25;4979759;28;20041;-82
2023/05/07 08:29:07;;;;;;;2.65;1.17;;;;;;;36.65;17.19;99096.13;4963657;28;20487;-81
2023/05/07 08:31:32;;;;;;;4.32;0.85;;;;;;;36.55;16.84;99097.00;4978979;28;20048;-82
2023/05/07 08:33:58;;;;;;;5.22;0.80;;;;;;;36.42;17.02;99100.31;5012873;28;20096;-82
2023/05/07 08:36:24;;;;;;;3.13;1.00;;;;;;;36.23;17.08;99099.00;4962720;28;20030;-83
2023/05/07 08:38:50;;;;;;;2.45;0.90;;;;;;;36.11;17.20;99095.78;4994704;28;20412;-82
2023/05/07 08:41:16;;;;;;;3.00;1.02;;;;;;;36.00;16.99;99091.50;4962890;28;20430;-83
2023/05/07 08:43:41;;;;;;;5.20;1.00;;;;;;;35.85;17.41;99097.75;4994947;28;20045;-81
2023/05/07 08:46:08;;;;;;;2.35;0.80;;;;;;;35.60;17.38;99083.13;4978592;28;20042;-82
2023/05/07 08:48:34;;;;;;;3.35;0.80;;;;;;;35.54;17.23;99088.84;4978982;28;20049;-82
2023/05/07 08:50:59;;;;;;;3.50;1.10;;;;;;;35.36;17.44;99092.91;4978903;28;20061;-81
2023/05/07 08:53:25;;;;;;;3.45;0.70;;;;;;;35.26;17.67;99089.09;4998571;28;20034;-82
2023/05/07 08:55:51;;;;;;;3.25;0.90;;;;;;;35.20;17.58;99090.16;5016584;28;20085;-83
2023/05/07 08:58:16;;;;;;;4.80;0.93;;;;;;;34.98;17.69;99082.28;4983622;28;20041;-82
2023/05/07 09:00:42;;;;;;;2.28;0.90;;;;;;;34.83;17.92;99085.00;4998834;28;20038;-83
2023/05/07 09:03:07;;;;;;;6.22;0.93;;;;;;;34.69;18.08;99090.88;4966162;28;20046;-83
2023/05/07 09:05:33;;;;;;;6.57;0.90;;;;;;;34.65;18.03;99084.38;4998550;28;20050;-82
2023/05/07 09:07:59;;;;;;;2.67;0.85;;;;;;;34.53;17.87;99084.59;4966399;28;20458;-83
2023/05/07 09:10:25;;;;;;;2.80;0.97;;;;;;;34.42;18.04;99074.81;4982730;28;20500;-82
2023/05/07 09:12:51;;;;;;;4.90;0.90;;;;;;;34.34;18.30;99078.84;4983063;28;20050;-82
2023/05/07 09:15:17;;;;;;;4.55;0.77;;;;;;;33.99;18.56;99079.50;4966133;28;20037;-82
2023/05/07 09:17:43;;;;;;;8.70;0.88;;;;;;;33.99;18.63;99074.88;4966039;28;20046;-83
2023/05/07 09:20:09;;;;;;;4.18;1.00;;;;;;;33.75;18.61;99070.94;4999247;28;20041;-83
2023/05/07 09:22:38;;;;;;;3.17;1.00;;;;;;;33.72;18.98;99066.88;4998846;28;20104;-82
2023/05/07 09:25:06;;;;;;;2.38;1.00;;;;;;;33.58;19.21;99071.91;4965661;28;20038;-82
2023/05/07 09:27:31;;;;;;;2.65;0.82;;;;;;;33.38;19.45;99067.16;4981958;28;20460;-83
2023/05/07 09:29:57;;;;;;;5.40;1.00;;;;;;;33.26;19.42;99061.94;4966181;28;20041;-80
2023/05/07 09:32:22;;;;;;;6.35;1.10;;;;;;;33.13;19.77;99059.59;4983644;28;20038;-81
2023/05/07 09:34:48;;;;;;;2.08;0.85;;;;;;;32.98;19.84;99058.41;4982109;28;20092;-83
2023/05/07 09:37:14;;;;;;;3.55;0.80;;;;;;;32.92;20.01;99059.41;4982341;28;20037;-83
2023/05/07 09:39:40;;;;;;;4.07;1.00;;;;;;;32.75;20.26;99056.00;4981910;28;20129;-82
2023/05/07 09:42:05;;;;;;;1.88;0.93;;;;;;;32.63;20.53;99038.06;5016351;28;20389;-82
2023/05/07 09:44:32;;;;;;;3.08;0.98;;;;;;;32.59;20.50;99041.50;4981178;28;20045;-81
2023/05/07 09:46:57;;;;;;;2.10;0.80;;;;;;;32.47;20.80;99045.16;4981687;28;20413;-81
2023/05/07 09:49:23;;;;;;;3.75;0.90;;;;;;;32.49;20.98;99044.91;4982044;28;20046;-81
2023/05/07 09:51:50;;;;;;;3.15;1.13;;;;;;;32.32;20.85;99047.69;4982064;28;20034;-81
2023/05/07 09:54:16;;;;;;;2.95;1.02;;;;;;;32.18;20.75;99038.34;4981545;28;20421;-82
2023/05/07 09:56:43;;;;;;;5.35;0.98;;;;;;;32.09;20.51;99044.19;4963918;28;20625;-82
2023/05/07 09:59:10;;;;;;;3.17;0.80;;;;;;;31.85;21.18;99043.56;4964724;28;20045;-81
2023/05/07 10:01:36;;;;;;;4.20;0.90;;;;;;;31.64;21.24;99036.25;4997789;28;20077;-82
2023/05/07 10:04:02;;;;;;;6.07;1.15;;;;;;;31.65;21.26;99030.59;4961349;28;20047;-81
2023/05/07 10:06:27;;;;;;;3.85;0.90;;;;;;;31.56;21.41;99041.03;4978061;28;20057;-82
2023/05/07 10:08:53;;;;;;;3.15;0.90;;;;;;;31.45;21.42;99041.06;4962307;28;20101;-83
2023/05/07 10:11:18;;;;;;;3.15;1.00;;;;;;;31.32;21.54;99034.94;4977823;28;20038;-82
2023/05/07 10:13:44;;;;;;;4.15;1.02;;;;;;;31.20;21.73;99035.03;4977484;28;20042;-81
2023/05/07 10:16:09;;;;;;;3.85;1.13;;;;;;;31.10;21.63;99037.56;4961770;28;20431;-82
2023/05/07 10:18:35;;;;;;;1.90;1.00;;;;;;;30.96;21.84;99034.38;4961088;28;20117;-81
2023/05/07 10:21:16;;;;;;;2.42;1.08;;;;;;;30.87;21.96;99033.09;4993789;28;20152;-82
2023/05/07 10:23:46;;;;;;;3.30;0.90;;;;;;;30.85;21.90;99027.13;4961641;28;20051;-81
2023/05/07 10:26:11;;;;;;;4.55;1.00;;;;;;;30.67;22.14;99025.47;4977898;28;20041;-80
2023/05/07 10:28:41;;;;;;;5.75;1.02;;;;;;;30.56;22.18;99023.66;4961304;28;20086;-82
2023/05/07 10:31:16;;;;;;;4.45;0.80;;;;;;;30.48;21.94;99016.78;4962074;28;20049;-81
2023/05/07 10:33:41;;;;;;;5.68;0.98;;;;;;;30.31;22.40;99008.59;4994943;28;20038;-82
2023/05/07 10:36:07;;;;;;;3.55;0.77;;;;;;;30.26;22.67;99021.97;4977247;28;20034;-79
2023/05/07 10:38:33;;;;;;;5.80;0.93;;;;;;;30.12;22.83;99014.16;4978538;28;20576;-80
2023/05/07 10:40:59;;;;;;;6.50;1.38;;;;;;;29.84;24.52;99016.78;4977462;28;20111;-75
2023/05/07 10:43:24;;;;;;;8.48;1.50;;;;;;;29.59;27.10;99017.84;4994096;28;20137;-76
2023/05/07 10:46:13;;;;;;;6.80;1.20;;;;;;;29.21;24.93;99003.00;4994824;28;20537;-76
2023/05/07 10:49:01;;;;;;;9.30;1.35;;;;;;;28.32;25.19;99001.75;4961687;28;20034;-77
2023/05/07 10:51:27;;;;;;;7.18;1.25;;;;;;;28.15;24.42;98996.19;4993308;28;20044;-77
2023/05/07 10:54:18;;;;;;;16.10;1.60;;;;;;;28.07;24.50;98999.16;4979515;28;20042;-82
2023/05/07 10:56:43;;;;;;;12.35;1.63;;;;;;;28.09;25.30;99005.13;4977083;28;20034;-77
2023/05/07 10:59:23;;;;;;;15.88;1.60;;;;;;;28.13;25.86;98992.06;4992429;28;20490;-79
2023/05/07 11:01:58;;;;;;;10.88;1.50;;;;;;;28.13;25.87;98998.28;4992769;28;20026;-77
2023/05/07 11:04:27;;;;;;;7.65;1.60;;;;;;;28.10;25.87;98982.63;4989794;28;20136;-81
2023/05/07 11:07:13;;;;;;;7.55;1.75;;;;;;;28.06;25.86;98980.59;4973449;28;20034;-78
2023/05/07 11:09:53;;;;;;;11.05;1.48;;;;;;;27.98;25.88;98989.78;4991100;28;20035;-77
2023/05/07 11:12:37;;;;;;;4.20;1.02;;;;;;;27.92;25.84;98996.81;4989989;28;20561;-78
2023/05/07 11:15:13;;;;;;;5.13;1.15;;;;;;;27.83;26.01;98979.38;4991068;28;20068;-78
2023/05/07 11:17:58;;;;;;;7.28;1.42;;;;;;;27.83;26.11;98983.94;4958354;28;20181;-79
2023/05/07 11:20:46;;;;;;;4.38;1.20;;;;;;;27.78;25.97;98976.56;4992712;28;20044;-78
2023/05/07 11:23:33;;;;;;;5.10;1.05;;;;;;;27.74;26.21;98980.75;4993506;28;20478;-78
2023/05/07 11:26:06;;;;;;;2.65;1.20;;;;;;;27.72;26.00;98972.06;4993552;28;20042;-78
2023/05/07 11:28:37;;;;;;;2.42;1.05;;;;;;;27.71;26.14;98973.94;4975575;28;20532;-78
2023/05/07 11:31:02;;;;;;;2.90;1.10;;;;;;;27.66;26.03;98971.13;4976860;28;20125;-79